sensor_id;sensor_type;location;lat;lon;timestamp;pressure;altitude;pressure_sealevel;temperature;humidity
56174;BME280;42058;52.308;20.924;2024-03-02T00:00:22;100370.30;;;7.10;100.00
56174;BME280;42058;52.308;20.924;2024-03-02T00:03:12;100372.05;;;7.08;100.00
56174;BME280;42058;52.308;20.924;2024-03-02T00:05:41;100369.46;;;7.08;100.00
56174;BME280;42058;52.308;20.924;2024-03-02T00:08:09;100369.66;;;7.06;100.00
56174;BME280;42058;52.308;20.924;2024-03-02T00:10:38;100364.09;;;7.04;100.00
56174;BME280;42058;52.308;20.924;2024-03-02T00:13:09;100363.06;;;7.03;100.00
56174;BME280;42058;52.308;20.924;2024-03-02T00:15:54;100355.80;;;7.00;100.00
56174;BME280;42058;52.308;20.924;2024-03-02T00:18:30;100351.09;;;6.98;100.00
56174;BME280;42058;52.308;20.924;2024-03-02T00:20:59;100346.04;;;6.97;100.00
56174;BME280;42058;52.308;20.924;2024-03-02T00:23:29;100354.61;;;6.95;100.00
56174;BME280;42058;52.308;20.924;2024-03-02T00:25:58;100353.41;;;6.93;100.00
56174;BME280;42058;52.308;20.924;2024-03-02T00:28:31;100354.67;;;6.91;100.00
56174;BME280;42058;52.308;20.924;2024-03-02T00:31:11;100354.67;;;6.90;100.00
56174;BME280;42058;52.308;20.924;2024-03-02T00:33:47;100352.45;;;6.87;100.00
56174;BME280;42058;52.308;20.924;2024-03-02T00:36:18;100353.52;;;6.86;100.00
56174;BME280;42058;52.308;20.924;2024-03-02T00:38:50;100354.94;;;6.84;100.00
56174;BME280;42058;52.308;20.924;2024-03-02T00:47:01;100351.17;;;6.77;100.00
56174;BME280;42058;52.308;20.924;2024-03-02T00:49:29;100351.73;;;6.76;100.00
56174;BME280;42058;52.308;20.924;2024-03-02T00:51:57;100347.74;;;6.72;100.00
56174;BME280;42058;52.308;20.924;2024-03-02T00:54:26;100356.84;;;6.69;100.00
56174;BME280;42058;52.308;20.924;2024-03-02T00:56:54;100364.53;;;6.69;100.00
56174;BME280;42058;52.308;20.924;2024-03-02T00:59:25;100360.90;;;6.66;100.00
56174;BME280;42058;52.308;20.924;2024-03-02T01:01:52;100362.66;;;6.64;100.00
56174;BME280;42058;52.308;20.924;2024-03-02T01:04:22;100356.92;;;6.63;100.00
56174;BME280;42058;52.308;20.924;2024-03-02T01:06:50;100358.33;;;6.62;100.00
56174;BME280;42058;52.308;20.924;2024-03-02T01:09:20;100355.02;;;6.61;100.00
56174;BME280;42058;52.308;20.924;2024-03-02T01:11:48;100354.17;;;6.60;100.00
56174;BME280;42058;52.308;20.924;2024-03-02T01:14:16;100347.05;;;6.59;100.00
56174;BME280;42058;52.308;20.924;2024-03-02T01:16:43;100345.10;;;6.60;100.00
56174;BME280;42058;52.308;20.924;2024-03-02T01:19:11;100342.51;;;6.58;100.00
56174;BME280;42058;52.308;20.924;2024-03-02T01:21:39;100341.12;;;6.58;100.00
56174;BME280;42058;52.308;20.924;2024-03-02T01:24:07;100340.44;;;6.57;100.00
56174;BME280;42058;52.308;20.924;2024-03-02T01:26:34;100344.45;;;6.56;100.00
56174;BME280;42058;52.308;20.924;2024-03-02T01:29:02;100344.46;;;6.55;100.00
56174;BME280;42058;52.308;20.924;2024-03-02T01:31:30;100348.32;;;6.53;100.00
56174;BME280;42058;52.308;20.924;2024-03-02T01:33:58;100346.08;;;6.52;100.00
56174;BME280;42058;52.308;20.924;2024-03-02T01:36:26;100337.73;;;6.50;100.00
56174;BME280;42058;52.308;20.924;2024-03-02T01:38:53;100329.38;;;6.49;100.00
56174;BME280;42058;52.308;20.924;2024-03-02T01:41:21;100333.60;;;6.46;100.00
56174;BME280;42058;52.308;20.924;2024-03-02T01:43:49;100332.55;;;6.45;100.00
56174;BME280;42058;52.308;20.924;2024-03-02T01:46:16;100321.98;;;6.41;100.00
56174;BME280;42058;52.308;20.924;2024-03-02T01:48:44;100320.59;;;6.40;100.00
56174;BME280;42058;52.308;20.924;2024-03-02T01:51:12;100323.06;;;6.38;100.00
56174;BME280;42058;52.308;20.924;2024-03-02T01:53:39;100319.61;;;6.33;100.00
56174;BME280;42058;52.308;20.924;2024-03-02T01:56:07;100320.67;;;6.32;100.00
56174;BME280;42058;52.308;20.924;2024-03-02T01:58:35;100321.55;;;6.30;100.00
56174;BME280;42058;52.308;20.924;2024-03-02T02:01:03;100320.52;;;6.29;100.00
56174;BME280;42058;52.308;20.924;2024-03-02T02:03:31;100322.46;;;6.27;100.00
56174;BME280;42058;52.308;20.924;2024-03-02T02:05:59;100318.66;;;6.25;100.00
56174;BME280;42058;52.308;20.924;2024-03-02T02:08:27;100319.54;;;6.24;100.00
56174;BME280;42058;52.308;20.924;2024-03-02T02:10:55;100321.30;;;6.23;100.00
56174;BME280;42058;52.308;20.924;2024-03-02T02:13:22;100321.48;;;6.21;100.00
56174;BME280;42058;52.308;20.924;2024-03-02T02:15:50;100320.98;;;6.20;100.00
56174;BME280;42058;52.308;20.924;2024-03-02T02:18:18;100318.73;;;6.19;100.00
56174;BME280;42058;52.308;20.924;2024-03-02T02:20:46;100317.01;;;6.16;100.00
56174;BME280;42058;52.308;20.924;2024-03-02T02:23:13;100318.23;;;6.16;100.00
56174;BME280;42058;52.308;20.924;2024-03-02T02:25:41;100313.19;;;6.15;100.00
56174;BME280;42058;52.308;20.924;2024-03-02T02:28:09;100314.23;;;6.14;100.00
56174;BME280;42058;52.308;20.924;2024-03-02T02:30:37;100314.61;;;6.12;100.00
56174;BME280;42058;52.308;20.924;2024-03-02T02:33:05;100312.18;;;6.11;100.00
56174;BME280;42058;52.308;20.924;2024-03-02T02:35:33;100312.19;;;6.10;100.00
56174;BME280;42058;52.308;20.924;2024-03-02T02:38:01;100309.94;;;6.10;100.00
56174;BME280;42058;52.308;20.924;2024-03-02T02:40:30;100311.34;;;6.09;100.00
56174;BME280;42058;52.308;20.924;2024-03-02T02:42:59;100307.35;;;6.08;100.00
56174;BME280;42058;52.308;20.924;2024-03-02T02:45:27;100302.13;;;6.07;100.00
56174;BME280;42058;52.308;20.924;2024-03-02T02:47:55;100299.34;;;6.06;100.00
56174;BME280;42058;52.308;20.924;2024-03-02T02:50:23;100305.44;;;6.06;100.00
56174;BME280;42058;52.308;20.924;2024-03-02T02:52:50;100302.85;;;6.05;100.00
56174;BME280;42058;52.308;20.924;2024-03-02T02:55:18;100300.94;;;6.03;100.00
56174;BME280;42058;52.308;20.924;2024-03-02T02:57:46;100301.65;;;6.02;100.00
56174;BME280;42058;52.308;20.924;2024-03-02T03:00:15;100297.68;;;5.99;100.00
56174;BME280;42058;52.308;20.924;2024-03-02T03:02:47;100298.20;;;5.98;100.00
56174;BME280;42058;52.308;20.924;2024-03-02T03:05:17;100297.19;;;5.96;100.00
56174;BME280;42058;52.308;20.924;2024-03-02T03:07:45;100299.42;;;5.95;100.00
56174;BME280;42058;52.308;20.924;2024-03-02T03:10:13;100295.27;;;5.93;100.00
56174;BME280;42058;52.308;20.924;2024-03-02T03:12:42;100296.33;;;5.91;100.00
56174;BME280;42058;52.308;20.924;2024-03-02T03:15:12;100299.30;;;5.89;100.00
56174;BME280;42058;52.308;20.924;2024-03-02T03:17:40;100294.46;;;5.87;100.00
56174;BME280;42058;52.308;20.924;2024-03-02T03:20:08;100294.47;;;5.85;100.00
56174;BME280;42058;52.308;20.924;2024-03-02T03:22:38;100292.57;;;5.84;100.00
56174;BME280;42058;52.308;20.924;2024-03-02T03:25:07;100293.44;;;5.83;100.00
56174;BME280;42058;52.308;20.924;2024-03-02T03:27:35;100292.60;;;5.80;100.00
56174;BME280;42058;52.308;20.924;2024-03-02T03:30:04;100294.00;;;5.79;100.00
56174;BME280;42058;52.308;20.924;2024-03-02T03:32:33;100290.53;;;5.78;100.00
56174;BME280;42058;52.308;20.924;2024-03-02T03:35:01;100294.55;;;5.76;100.00
56174;BME280;42058;52.308;20.924;2024-03-02T03:37:29;100291.61;;;5.74;100.00
56174;BME280;42058;52.308;20.924;2024-03-02T03:40:02;100283.96;;;5.72;100.00
56174;BME280;42058;52.308;20.924;2024-03-02T03:42:34;100288.51;;;5.70;100.00
56174;BME280;42058;52.308;20.924;2024-03-02T03:45:03;100286.27;;;5.68;100.00
56174;BME280;42058;52.308;20.924;2024-03-02T03:47:31;100293.59;;;5.66;100.00
56174;BME280;42058;52.308;20.924;2024-03-02T03:49:59;100293.79;;;5.63;100.00
56174;BME280;42058;52.308;20.924;2024-03-02T03:52:27;100292.92;;;5.62;100.00
56174;BME280;42058;52.308;20.924;2024-03-02T03:54:54;100288.07;;;5.61;100.00
56174;BME280;42058;52.308;20.924;2024-03-02T03:57:22;100288.60;;;5.60;100.00
56174;BME280;42058;52.308;20.924;2024-03-02T03:59:50;100285.14;;;5.57;100.00
56174;BME280;42058;52.308;20.924;2024-03-02T04:02:18;100282.70;;;5.56;100.00
56174;BME280;42058;52.308;20.924;2024-03-02T04:04:46;100283.93;;;5.55;100.00
56174;BME280;42058;52.308;20.924;2024-03-02T04:07:14;100286.55;;;5.54;100.00
56174;BME280;42058;52.308;20.924;2024-03-02T04:09:41;100286.75;;;5.52;100.00
56174;BME280;42058;52.308;20.924;2024-03-02T04:12:09;100282.77;;;5.51;100.00
56174;BME280;42058;52.308;20.924;2024-03-02T04:14:37;100291.11;;;5.50;100.00
56174;BME280;42058;52.308;20.924;2024-03-02T04:17:05;100293.20;;;5.49;100.00
56174;BME280;42058;52.308;20.924;2024-03-02T04:19:32;100294.95;;;5.48;100.00
56174;BME280;42058;52.308;20.924;2024-03-02T04:22:00;100298.44;;;5.48;100.00
56174;BME280;42058;52.308;20.924;2024-03-02T04:24:41;100294.27;;;5.47;100.00
56174;BME280;42058;52.308;20.924;2024-03-02T04:27:09;100297.77;;;5.46;100.00
56174;BME280;42058;52.308;20.924;2024-03-02T04:29:37;100299.48;;;5.46;100.00
56174;BME280;42058;52.308;20.924;2024-03-02T04:32:04;100305.92;;;5.46;100.00
56174;BME280;42058;52.308;20.924;2024-03-02T04:34:32;100305.23;;;5.45;100.00
56174;BME280;42058;52.308;20.924;2024-03-02T04:37:00;100308.38;;;5.46;100.00
56174;BME280;42058;52.308;20.924;2024-03-02T04:39:28;100303.85;;;5.46;100.00
56174;BME280;42058;52.308;20.924;2024-03-02T04:41:56;100302.79;;;5.47;100.00
56174;BME280;42058;52.308;20.924;2024-03-02T04:44:23;100306.44;;;5.48;100.00
56174;BME280;42058;52.308;20.924;2024-03-02T04:46:51;100297.58;;;5.47;100.00
56174;BME280;42058;52.308;20.924;2024-03-02T04:49:19;100295.33;;;5.47;100.00
56174;BME280;42058;52.308;20.924;2024-03-02T04:51:47;100298.46;;;5.46;100.00
56174;BME280;42058;52.308;20.924;2024-03-02T04:54:14;100296.54;;;5.46;100.00
56174;BME280;42058;52.308;20.924;2024-03-02T04:56:42;100292.71;;;5.45;100.00
56174;BME280;42058;52.308;20.924;2024-03-02T04:59:18;100301.23;;;5.45;100.00
56174;BME280;42058;52.308;20.924;2024-03-02T05:01:46;100296.20;;;5.45;100.00
56174;BME280;42058;52.308;20.924;2024-03-02T05:04:15;100289.77;;;5.44;100.00
56174;BME280;42058;52.308;20.924;2024-03-02T05:06:42;100286.30;;;5.43;100.00
56174;BME280;42058;52.308;20.924;2024-03-02T05:09:10;100289.95;;;5.43;100.00
56174;BME280;42058;52.308;20.924;2024-03-02T05:11:38;100301.27;;;5.43;100.00
56174;BME280;42058;52.308;20.924;2024-03-02T05:14:06;100295.89;;;5.42;100.00
56174;BME280;42058;52.308;20.924;2024-03-02T05:16:35;100302.66;;;5.41;100.00
56174;BME280;42058;52.308;20.924;2024-03-02T05:19:03;100306.49;;;5.42;100.00
56174;BME280;42058;52.308;20.924;2024-03-02T05:21:30;100314.33;;;5.41;100.00
56174;BME280;42058;52.308;20.924;2024-03-02T05:23:58;100323.36;;;5.41;100.00
56174;BME280;42058;52.308;20.924;2024-03-02T05:26:26;100320.42;;;5.41;100.00
56174;BME280;42058;52.308;20.924;2024-03-02T05:28:54;100325.46;;;5.40;100.00
56174;BME280;42058;52.308;20.924;2024-03-02T05:31:22;100322.67;;;5.39;100.00
56174;BME280;42058;52.308;20.924;2024-03-02T05:33:49;100329.48;;;5.38;100.00
56174;BME280;42058;52.308;20.924;2024-03-02T05:36:23;100327.20;;;5.38;100.00
56174;BME280;42058;52.308;20.924;2024-03-02T05:38:51;100329.66;;;5.38;100.00
56174;BME280;42058;52.308;20.924;2024-03-02T05:41:19;100336.44;;;5.38;100.00
56174;BME280;42058;52.308;20.924;2024-03-02T05:43:46;100335.76;;;5.37;100.00
56174;BME280;42058;52.308;20.924;2024-03-02T05:46:14;100341.13;;;5.38;100.00
56174;BME280;42058;52.308;20.924;2024-03-02T05:48:42;100331.92;;;5.37;100.00
56174;BME280;42058;52.308;20.924;2024-03-02T05:51:09;100336.27;;;5.36;100.00
56174;BME280;42058;52.308;20.924;2024-03-02T05:53:37;100341.14;;;5.37;100.00
56174;BME280;42058;52.308;20.924;2024-03-02T05:56:06;100342.69;;;5.37;100.00
56174;BME280;42058;52.308;20.924;2024-03-02T05:58:34;100342.86;;;5.38;100.00
56174;BME280;42058;52.308;20.924;2024-03-02T06:01:20;100340.78;;;5.38;100.00
56174;BME280;42058;52.308;20.924;2024-03-02T06:03:50;100342.00;;;5.38;100.00
56174;BME280;42058;52.308;20.924;2024-03-02T06:06:17;100342.86;;;5.38;100.00
56174;BME280;42058;52.308;20.924;2024-03-02T06:08:45;100344.61;;;5.39;100.00
56174;BME280;42058;52.308;20.924;2024-03-02T06:11:13;100346.17;;;5.39;100.00
56174;BME280;42058;52.308;20.924;2024-03-02T06:13:41;100345.99;;;5.40;100.00
56174;BME280;42058;52.308;20.924;2024-03-02T06:16:08;100353.80;;;5.42;100.00
56174;BME280;42058;52.308;20.924;2024-03-02T06:18:36;100360.41;;;5.43;100.00
56174;BME280;42058;52.308;20.924;2024-03-02T06:21:04;100360.58;;;5.44;100.00
56174;BME280;42058;52.308;20.924;2024-03-02T06:23:31;100355.00;;;5.46;100.00
56174;BME280;42058;52.308;20.924;2024-03-02T06:25:59;100350.46;;;5.47;100.00
56174;BME280;42058;52.308;20.924;2024-03-02T06:28:28;100349.24;;;5.48;100.00
56174;BME280;42058;52.308;20.924;2024-03-02T06:30:56;100352.70;;;5.49;100.00
56174;BME280;42058;52.308;20.924;2024-03-02T06:33:23;100356.36;;;5.49;100.00
56174;BME280;42058;52.308;20.924;2024-03-02T06:35:51;100362.27;;;5.50;100.00
56174;BME280;42058;52.308;20.924;2024-03-02T06:38:19;100368.36;;;5.51;100.00
56174;BME280;42058;52.308;20.924;2024-03-02T06:40:47;100371.30;;;5.53;100.00
56174;BME280;42058;52.308;20.924;2024-03-02T06:43:14;100373.90;;;5.55;100.00
56174;BME280;42058;52.308;20.924;2024-03-02T06:45:42;100371.11;;;5.57;100.00
56174;BME280;42058;52.308;20.924;2024-03-02T06:48:10;100373.88;;;5.60;100.00
56174;BME280;42058;52.308;20.924;2024-03-02T06:50:37;100374.38;;;5.63;100.00
56174;BME280;42058;52.308;20.924;2024-03-02T06:53:05;100374.70;;;5.65;100.00
56174;BME280;42058;52.308;20.924;2024-03-02T06:55:33;100378.34;;;5.68;100.00
56174;BME280;42058;52.308;20.924;2024-03-02T06:58:00;100384.06;;;5.71;100.00
56174;BME280;42058;52.308;20.924;2024-03-02T07:00:28;100378.82;;;5.74;100.00
56174;BME280;42058;52.308;20.924;2024-03-02T07:02:56;100380.00;;;5.78;100.00
56174;BME280;42058;52.308;20.924;2024-03-02T07:05:24;100374.59;;;5.80;100.00
56174;BME280;42058;52.308;20.924;2024-03-02T07:07:51;100376.49;;;5.82;100.00
56174;BME280;42058;52.308;20.924;2024-03-02T07:10:19;100375.95;;;5.85;100.00
56174;BME280;42058;52.308;20.924;2024-03-02T07:12:47;100375.41;;;5.87;100.00
56174;BME280;42058;52.308;20.924;2024-03-02T07:15:14;100375.73;;;5.89;100.00
56174;BME280;42058;52.308;20.924;2024-03-02T07:18:12;100376.92;;;5.92;100.00
56174;BME280;42058;52.308;20.924;2024-03-02T07:20:39;100373.08;;;5.95;100.00
56174;BME280;42058;52.308;20.924;2024-03-02T07:23:07;100373.77;;;5.98;100.00
56174;BME280;42058;52.308;20.924;2024-03-02T07:25:35;100373.23;;;6.00;100.00
56174;BME280;42058;52.308;20.924;2024-03-02T07:28:05;100375.82;;;6.04;100.00
56174;BME280;42058;52.308;20.924;2024-03-02T07:30:34;100378.23;;;6.07;100.00
56174;BME280;42058;52.308;20.924;2024-03-02T07:33:02;100377.15;;;6.10;100.00
56174;BME280;42058;52.308;20.924;2024-03-02T07:35:30;100383.40;;;6.13;100.00
56174;BME280;42058;52.308;20.924;2024-03-02T07:37:59;100390.86;;;6.15;100.00
56174;BME280;42058;52.308;20.924;2024-03-02T07:40:27;100389.63;;;6.18;100.00
56174;BME280;42058;52.308;20.924;2024-03-02T07:42:54;100387.67;;;6.21;100.00
56174;BME280;42058;52.308;20.924;2024-03-02T07:45:23;100386.27;;;6.23;100.00
56174;BME280;42058;52.308;20.924;2024-03-02T07:47:50;100388.52;;;6.25;100.00
56174;BME280;42058;52.308;20.924;2024-03-02T07:50:18;100380.33;;;6.25;100.00
56174;BME280;42058;52.308;20.924;2024-03-02T07:52:46;100381.69;;;6.28;100.00
56174;BME280;42058;52.308;20.924;2024-03-02T07:55:14;100387.94;;;6.30;100.00
56174;BME280;42058;52.308;20.924;2024-03-02T07:57:42;100388.09;;;6.31;100.00
56174;BME280;42058;52.308;20.924;2024-03-02T08:00:10;100389.30;;;6.33;100.00
56174;BME280;42058;52.308;20.924;2024-03-02T08:02:39;100391.20;;;6.37;100.00
56174;BME280;42058;52.308;20.924;2024-03-02T08:05:08;100400.39;;;6.39;100.00
56174;BME280;42058;52.308;20.924;2024-03-02T08:07:35;100398.48;;;6.41;100.00
56174;BME280;42058;52.308;20.924;2024-03-02T08:10:03;100403.86;;;6.42;100.00
56174;BME280;42058;52.308;20.924;2024-03-02T08:12:31;100408.02;;;6.45;100.00
56174;BME280;42058;52.308;20.924;2024-03-02T08:14:59;100415.48;;;6.48;100.00
56174;BME280;42058;52.308;20.924;2024-03-02T08:17:27;100414.94;;;6.50;100.00
56174;BME280;42058;52.308;20.924;2024-03-02T08:19:55;100413.68;;;6.52;100.00
56174;BME280;42058;52.308;20.924;2024-03-02T08:22:23;100420.09;;;6.57;100.00
56174;BME280;42058;52.308;20.924;2024-03-02T08:24:54;100415.00;;;6.60;100.00
56174;BME280;42058;52.308;20.924;2024-03-02T08:27:22;100414.26;;;6.64;100.00
56174;BME280;42058;52.308;20.924;2024-03-02T08:29:50;100408.28;;;6.69;100.00
56174;BME280;42058;52.308;20.924;2024-03-02T08:32:17;100405.81;;;6.72;100.00
56174;BME280;42058;52.308;20.924;2024-03-02T08:34:45;100405.26;;;6.75;100.00
56174;BME280;42058;52.308;20.924;2024-03-02T08:37:13;100403.11;;;6.79;100.00
56174;BME280;42058;52.308;20.924;2024-03-02T08:39:41;100400.83;;;6.82;100.00
56174;BME280;42058;52.308;20.924;2024-03-02T08:42:08;100406.72;;;6.85;100.00
56174;BME280;42058;52.308;20.924;2024-03-02T08:44:36;100407.89;;;6.88;100.00
56174;BME280;42058;52.308;20.924;2024-03-02T08:47:04;100406.64;;;6.91;100.00
56174;BME280;42058;52.308;20.924;2024-03-02T08:49:32;100408.69;;;6.95;100.00
56174;BME280;42058;52.308;20.924;2024-03-02T08:52:00;100408.84;;;6.96;100.00
56174;BME280;42058;52.308;20.924;2024-03-02T08:54:28;100412.48;;;6.98;100.00
56174;BME280;42058;52.308;20.924;2024-03-02T08:56:56;100412.12;;;6.99;100.00
56174;BME280;42058;52.308;20.924;2024-03-02T08:59:24;100413.52;;;7.00;100.00
56174;BME280;42058;52.308;20.924;2024-03-02T09:01:52;100418.05;;;7.00;100.00
56174;BME280;42058;52.308;20.924;2024-03-02T09:04:20;100415.78;;;7.00;100.00
56174;BME280;42058;52.308;20.924;2024-03-02T09:06:52;100415.41;;;7.02;100.00
56174;BME280;42058;52.308;20.924;2024-03-02T09:09:20;100415.71;;;7.05;100.00
56174;BME280;42058;52.308;20.924;2024-03-02T09:11:48;100412.53;;;7.08;100.00
56174;BME280;42058;52.308;20.924;2024-03-02T09:14:16;100412.84;;;7.11;100.00
56174;BME280;42058;52.308;20.924;2024-03-02T09:16:43;100414.38;;;7.15;100.00
56174;BME280;42058;52.308;20.924;2024-03-02T09:19:11;100414.55;;;7.16;100.00
56174;BME280;42058;52.308;20.924;2024-03-02T09:21:39;100417.25;;;7.22;100.00
56174;BME280;42058;52.308;20.924;2024-03-02T09:24:07;100415.45;;;7.26;100.00
56174;BME280;42058;52.308;20.924;2024-03-02T09:26:34;100411.19;;;7.31;100.00
56174;BME280;42058;52.308;20.924;2024-03-02T09:29:02;100410.42;;;7.37;100.00
56174;BME280;42058;52.308;20.924;2024-03-02T09:31:30;100405.64;;;7.41;100.00
56174;BME280;42058;52.308;20.924;2024-03-02T09:33:57;100407.48;;;7.48;100.00
56174;BME280;42058;52.308;20.924;2024-03-02T09:36:25;100410.71;;;7.53;100.00
56174;BME280;42058;52.308;20.924;2024-03-02T09:38:53;100413.97;;;7.58;100.00
56174;BME280;42058;52.308;20.924;2024-03-02T09:41:21;100410.25;;;7.61;100.00
56174;BME280;42058;52.308;20.924;2024-03-02T09:43:49;100407.23;;;7.64;100.00
56174;BME280;42058;52.308;20.924;2024-03-02T09:46:16;100411.19;;;7.69;100.00
56174;BME280;42058;52.308;20.924;2024-03-02T09:48:45;100409.40;;;7.72;100.00
56174;BME280;42058;52.308;20.924;2024-03-02T09:51:13;100410.41;;;7.75;100.00
56174;BME280;42058;52.308;20.924;2024-03-02T09:53:42;100413.84;;;7.79;100.00
56174;BME280;42058;52.308;20.924;2024-03-02T09:56:10;100415.02;;;7.81;100.00
56174;BME280;42058;52.308;20.924;2024-03-02T09:58:38;100413.41;;;7.83;100.00
56174;BME280;42058;52.308;20.924;2024-03-02T10:01:06;100410.24;;;7.85;100.00
56174;BME280;42058;52.308;20.924;2024-03-02T10:03:34;100410.91;;;7.86;100.00
56174;BME280;42058;52.308;20.924;2024-03-02T10:08:49;100405.60;;;7.92;100.00
56174;BME280;42058;52.308;20.924;2024-03-02T10:11:35;100403.42;;;7.96;100.00
56174;BME280;42058;52.308;20.924;2024-03-02T10:14:10;100398.27;;;8.02;100.00
56174;BME280;42058;52.308;20.924;2024-03-02T10:16:43;100397.84;;;8.07;100.00
56174;BME280;42058;52.308;20.924;2024-03-02T10:19:23;100397.21;;;8.13;100.00
56174;BME280;42058;52.308;20.924;2024-03-02T10:21:55;100395.70;;;8.19;100.00
56174;BME280;42058;52.308;20.924;2024-03-02T10:24:24;100393.00;;;8.24;100.00
56174;BME280;42058;52.308;20.924;2024-03-02T10:26:52;100382.77;;;8.29;100.00
56174;BME280;42058;52.308;20.924;2024-03-02T10:29:20;100383.17;;;8.37;100.00
56174;BME280;42058;52.308;20.924;2024-03-02T10:31:48;100379.58;;;8.43;100.00
56174;BME280;42058;52.308;20.924;2024-03-02T10:34:16;100380.65;;;8.51;100.00
56174;BME280;42058;52.308;20.924;2024-03-02T10:36:44;100382.27;;;8.58;100.00
56174;BME280;42058;52.308;20.924;2024-03-02T10:39:14;100386.15;;;8.66;100.00
56174;BME280;42058;52.308;20.924;2024-03-02T10:41:43;100379.55;;;8.72;100.00
56174;BME280;42058;52.308;20.924;2024-03-02T10:44:13;100378.73;;;8.78;100.00
56174;BME280;42058;52.308;20.924;2024-03-02T10:46:42;100380.36;;;8.84;100.00
56174;BME280;42058;52.308;20.924;2024-03-02T10:49:12;100385.70;;;8.89;100.00
56174;BME280;42058;52.308;20.924;2024-03-02T10:51:41;100380.42;;;8.90;100.00
56174;BME280;42058;52.308;20.924;2024-03-02T10:54:09;100377.33;;;8.95;100.00
56174;BME280;42058;52.308;20.924;2024-03-02T10:56:41;100377.23;;;9.01;100.00
56174;BME280;42058;52.308;20.924;2024-03-02T10:59:34;100371.85;;;9.07;100.00
56174;BME280;42058;52.308;20.924;2024-03-02T11:02:03;100370.80;;;9.15;100.00
56174;BME280;42058;52.308;20.924;2024-03-02T11:04:34;100366.63;;;9.22;100.00
56174;BME280;42058;52.308;20.924;2024-03-02T11:07:05;100363.64;;;9.30;100.00
56174;BME280;42058;52.308;20.924;2024-03-02T11:09:35;100362.11;;;9.36;100.00
56174;BME280;42058;52.308;20.924;2024-03-02T11:12:12;100361.48;;;9.40;100.00
56174;BME280;42058;52.308;20.924;2024-03-02T11:14:43;100356.49;;;9.44;100.00
56174;BME280;42058;52.308;20.924;2024-03-02T11:17:15;100356.19;;;9.50;100.00
56174;BME280;42058;52.308;20.924;2024-03-02T11:19:44;100361.02;;;9.53;100.00
56174;BME280;42058;52.308;20.924;2024-03-02T11:22:13;100360.14;;;9.54;100.00
56174;BME280;42058;52.308;20.924;2024-03-02T11:24:51;100357.31;;;9.54;100.00
56174;BME280;42058;52.308;20.924;2024-03-02T11:33:03;100351.68;;;9.63;100.00
56174;BME280;42058;52.308;20.924;2024-03-02T11:35:41;100347.98;;;9.64;100.00
56174;BME280;42058;52.308;20.924;2024-03-02T11:38:18;100345.81;;;9.67;100.00
56174;BME280;42058;52.308;20.924;2024-03-02T11:40:45;100348.57;;;9.69;100.00
56174;BME280;42058;52.308;20.924;2024-03-02T11:43:13;100341.27;;;9.73;100.00
56174;BME280;42058;52.308;20.924;2024-03-02T11:45:43;100344.33;;;9.77;100.00
56174;BME280;42058;52.308;20.924;2024-03-02T11:48:15;100345.80;;;9.82;100.00
56174;BME280;42058;52.308;20.924;2024-03-02T11:50:47;100341.67;;;9.86;100.00
56174;BME280;42058;52.308;20.924;2024-03-02T11:53:17;100338.58;;;9.90;100.00
56174;BME280;42058;52.308;20.924;2024-03-02T11:55:45;100333.75;;;9.95;100.00
56174;BME280;42058;52.308;20.924;2024-03-02T11:58:16;100331.92;;;9.97;100.00
56174;BME280;42058;52.308;20.924;2024-03-02T12:00:51;100330.54;;;9.97;100.00
56174;BME280;42058;52.308;20.924;2024-03-02T12:03:24;100329.80;;;9.98;100.00
56174;BME280;42058;52.308;20.924;2024-03-02T12:05:53;100326.30;;;9.97;100.00
56174;BME280;42058;52.308;20.924;2024-03-02T12:08:22;100323.30;;;9.98;100.00
56174;BME280;42058;52.308;20.924;2024-03-02T12:10:59;100319.64;;;9.98;100.00
56174;BME280;42058;52.308;20.924;2024-03-02T12:13:29;100316.98;;;9.99;100.00
56174;BME280;42058;52.308;20.924;2024-03-02T12:15:57;100323.56;;;10.02;100.00
56174;BME280;42058;52.308;20.924;2024-03-02T12:18:27;100319.48;;;10.04;100.00
56174;BME280;42058;52.308;20.924;2024-03-02T12:20:55;100324.10;;;10.08;100.00
56174;BME280;42058;52.308;20.924;2024-03-02T12:23:25;100323.63;;;10.13;100.00
56174;BME280;42058;52.308;20.924;2024-03-02T12:25:53;100321.93;;;10.17;100.00
56174;BME280;42058;52.308;20.924;2024-03-02T12:28:21;100314.11;;;10.21;100.00
56174;BME280;42058;52.308;20.924;2024-03-02T12:30:49;100314.23;;;10.23;100.00
56174;BME280;42058;52.308;20.924;2024-03-02T12:33:17;100316.41;;;10.27;100.00
56174;BME280;42058;52.308;20.924;2024-03-02T12:35:46;100320.15;;;10.33;100.00
56174;BME280;42058;52.308;20.924;2024-03-02T12:38:14;100331.75;;;10.38;100.00
56174;BME280;42058;52.308;20.924;2024-03-02T12:40:42;100329.25;;;10.46;100.00
56174;BME280;42058;52.308;20.924;2024-03-02T12:43:10;100332.02;;;10.54;100.00
56174;BME280;42058;52.308;20.924;2024-03-02T12:45:38;100334.73;;;10.57;100.00
56174;BME280;42058;52.308;20.924;2024-03-02T12:48:06;100334.83;;;10.60;100.00
56174;BME280;42058;52.308;20.924;2024-03-02T12:50:34;100328.43;;;10.64;100.00
56174;BME280;42058;52.308;20.924;2024-03-02T12:53:02;100332.86;;;10.68;100.00
56174;BME280;42058;52.308;20.924;2024-03-02T12:55:30;100332.61;;;10.71;100.00
56174;BME280;42058;52.308;20.924;2024-03-02T12:58:00;100330.16;;;10.70;100.00
56174;BME280;42058;52.308;20.924;2024-03-02T13:00:30;100329.23;;;10.72;100.00
56174;BME280;42058;52.308;20.924;2024-03-02T13:03:02;100331.77;;;10.75;100.00